Okefenokee, Georgia
Current Conditions -  °F | °C
As of 12:15 AM on Wednesday 26 Nov 2014 (Local Time) from KAYS Reporting Station
Moderate Rain Moderate Rain  
Wind Chill: 54°   Ceiling: 500
Heat Index: 54°   Visibility: 4mi
Dew Point: 53°   Wind: 15mph
Humidity: 97%   Direction: 330°NNW
Pressure: 29.93"   Gusts: NA
Location:  31.1455°N, 82.3853°W
Report Text: KAYS 260515Z AUTO 33013KT 4SM RA OVC005 12/12 A2993 RMK AO2 T01240119
Loading
Personal Weather Stations






























Interactive Weather Map New forecast layout! Learn more

10-Day Weather Forecast

Advertisements
Track Severe Weather on mobile